sensor_id;sensor_type;location;lat;lon;timestamp;P1;durP1;ratioP1;P2;durP2;ratioP2
16998;SDS011;10211;49.476;11.010;2022-10-16T00:01:14;2.53;;;1.40;;
16998;SDS011;10211;49.476;11.010;2022-10-16T00:03:42;4.20;;;1.33;;
16998;SDS011;10211;49.476;11.010;2022-10-16T00:06:10;3.10;;;1.20;;
16998;SDS011;10211;49.476;11.010;2022-10-16T00:08:39;1.40;;;1.30;;
16998;SDS011;10211;49.476;11.010;2022-10-16T00:11:07;1.77;;;1.10;;
16998;SDS011;10211;49.476;11.010;2022-10-16T00:13:36;1.07;;;1.07;;
16998;SDS011;10211;49.476;11.010;2022-10-16T00:16:05;1.97;;;1.17;;
16998;SDS011;10211;49.476;11.010;2022-10-16T00:18:32;1.60;;;1.37;;
16998;SDS011;10211;49.476;11.010;2022-10-16T00:21:03;2.43;;;1.50;;
16998;SDS011;10211;49.476;11.010;2022-10-16T00:23:31;1.93;;;1.30;;
16998;SDS011;10211;49.476;11.010;2022-10-16T00:26:00;3.83;;;1.30;;
16998;SDS011;10211;49.476;11.010;2022-10-16T00:28:28;1.43;;;1.13;;
16998;SDS011;10211;49.476;11.010;2022-10-16T00:30:55;3.13;;;1.10;;
16998;SDS011;10211;49.476;11.010;2022-10-16T00:33:22;2.40;;;1.50;;
16998;SDS011;10211;49.476;11.010;2022-10-16T00:35:49;1.57;;;1.47;;
16998;SDS011;10211;49.476;11.010;2022-10-16T00:38:23;2.57;;;1.40;;
16998;SDS011;10211;49.476;11.010;2022-10-16T00:40:50;4.10;;;1.50;;
16998;SDS011;10211;49.476;11.010;2022-10-16T00:46:15;6.87;;;1.37;;
16998;SDS011;10211;49.476;11.010;2022-10-16T00:48:45;2.63;;;1.50;;
16998;SDS011;10211;49.476;11.010;2022-10-16T00:51:16;2.50;;;1.30;;
16998;SDS011;10211;49.476;11.010;2022-10-16T00:53:45;2.80;;;1.50;;
16998;SDS011;10211;49.476;11.010;2022-10-16T00:56:12;1.03;;;1.00;;
16998;SDS011;10211;49.476;11.010;2022-10-16T00:58:39;3.53;;;1.43;;
16998;SDS011;10211;49.476;11.010;2022-10-16T01:01:06;1.43;;;1.33;;
16998;SDS011;10211;49.476;11.010;2022-10-16T01:03:35;3.00;;;1.33;;
16998;SDS011;10211;49.476;11.010;2022-10-16T01:06:05;1.80;;;1.53;;
16998;SDS011;10211;49.476;11.010;2022-10-16T01:08:44;2.17;;;1.30;;
16998;SDS011;10211;49.476;11.010;2022-10-16T01:11:21;1.50;;;1.37;;
16998;SDS011;10211;49.476;11.010;2022-10-16T01:13:53;2.57;;;1.70;;
16998;SDS011;10211;49.476;11.010;2022-10-16T01:16:26;2.47;;;1.60;;
16998;SDS011;10211;49.476;11.010;2022-10-16T01:19:00;1.60;;;1.40;;
16998;SDS011;10211;49.476;11.010;2022-10-16T01:21:36;5.13;;;1.37;;
16998;SDS011;10211;49.476;11.010;2022-10-16T01:24:07;1.30;;;1.20;;
16998;SDS011;10211;49.476;11.010;2022-10-16T01:26:48;4.53;;;1.60;;
16998;SDS011;10211;49.476;11.010;2022-10-16T01:29:29;3.33;;;1.60;;
16998;SDS011;10211;49.476;11.010;2022-10-16T01:32:05;1.90;;;1.37;;
16998;SDS011;10211;49.476;11.010;2022-10-16T01:34:38;2.70;;;1.60;;
16998;SDS011;10211;49.476;11.010;2022-10-16T01:37:12;2.20;;;1.53;;
16998;SDS011;10211;49.476;11.010;2022-10-16T01:39:42;4.73;;;1.63;;
16998;SDS011;10211;49.476;11.010;2022-10-16T01:42:16;4.50;;;1.40;;
16998;SDS011;10211;49.476;11.010;2022-10-16T01:44:47;2.73;;;1.87;;
16998;SDS011;10211;49.476;11.010;2022-10-16T01:47:15;2.73;;;1.60;;
16998;SDS011;10211;49.476;11.010;2022-10-16T01:49:43;1.97;;;1.30;;
16998;SDS011;10211;49.476;11.010;2022-10-16T01:52:12;3.90;;;1.70;;
16998;SDS011;10211;49.476;11.010;2022-10-16T01:54:42;1.83;;;1.37;;
16998;SDS011;10211;49.476;11.010;2022-10-16T01:57:12;4.30;;;1.47;;
16998;SDS011;10211;49.476;11.010;2022-10-16T01:59:42;3.73;;;1.50;;
16998;SDS011;10211;49.476;11.010;2022-10-16T02:02:12;6.63;;;1.77;;
16998;SDS011;10211;49.476;11.010;2022-10-16T02:04:42;2.20;;;1.57;;
16998;SDS011;10211;49.476;11.010;2022-10-16T02:07:12;7.57;;;1.67;;
16998;SDS011;10211;49.476;11.010;2022-10-16T02:09:40;2.63;;;1.73;;
16998;SDS011;10211;49.476;11.010;2022-10-16T02:12:08;5.20;;;1.70;;
16998;SDS011;10211;49.476;11.010;2022-10-16T02:14:39;3.40;;;1.83;;
16998;SDS011;10211;49.476;11.010;2022-10-16T02:17:12;3.03;;;2.33;;
16998;SDS011;10211;49.476;11.010;2022-10-16T02:19:40;4.97;;;2.43;;
16998;SDS011;10211;49.476;11.010;2022-10-16T02:22:08;2.93;;;2.23;;
16998;SDS011;10211;49.476;11.010;2022-10-16T02:24:38;1.30;;;1.20;;
16998;SDS011;10211;49.476;11.010;2022-10-16T02:27:13;2.47;;;1.50;;
16998;SDS011;10211;49.476;11.010;2022-10-16T02:29:47;1.30;;;1.20;;
16998;SDS011;10211;49.476;11.010;2022-10-16T02:32:24;1.40;;;1.30;;
16998;SDS011;10211;49.476;11.010;2022-10-16T02:34:56;1.50;;;1.23;;
16998;SDS011;10211;49.476;11.010;2022-10-16T02:37:25;3.03;;;1.20;;
16998;SDS011;10211;49.476;11.010;2022-10-16T02:39:53;1.73;;;1.43;;
16998;SDS011;10211;49.476;11.010;2022-10-16T02:42:26;2.70;;;1.40;;
16998;SDS011;10211;49.476;11.010;2022-10-16T02:44:56;2.73;;;1.40;;
16998;SDS011;10211;49.476;11.010;2022-10-16T02:47:23;3.17;;;1.37;;
16998;SDS011;10211;49.476;11.010;2022-10-16T02:49:49;1.60;;;1.23;;
16998;SDS011;10211;49.476;11.010;2022-10-16T02:52:18;1.87;;;1.33;;
16998;SDS011;10211;49.476;11.010;2022-10-16T02:54:45;4.20;;;1.40;;
16998;SDS011;10211;49.476;11.010;2022-10-16T02:57:14;5.63;;;1.50;;
16998;SDS011;10211;49.476;11.010;2022-10-16T02:59:41;2.00;;;1.50;;
16998;SDS011;10211;49.476;11.010;2022-10-16T03:02:09;1.93;;;1.37;;
16998;SDS011;10211;49.476;11.010;2022-10-16T03:04:36;5.33;;;1.30;;
16998;SDS011;10211;49.476;11.010;2022-10-16T03:07:03;2.73;;;1.30;;
16998;SDS011;10211;49.476;11.010;2022-10-16T03:09:30;1.73;;;1.63;;
16998;SDS011;10211;49.476;11.010;2022-10-16T03:11:57;2.07;;;1.47;;
16998;SDS011;10211;49.476;11.010;2022-10-16T03:14:24;3.00;;;1.80;;
16998;SDS011;10211;49.476;11.010;2022-10-16T03:16:50;2.07;;;1.57;;
16998;SDS011;10211;49.476;11.010;2022-10-16T03:19:19;1.80;;;1.50;;
16998;SDS011;10211;49.476;11.010;2022-10-16T03:21:46;2.90;;;1.70;;
16998;SDS011;10211;49.476;11.010;2022-10-16T03:24:12;2.90;;;1.70;;
16998;SDS011;10211;49.476;11.010;2022-10-16T03:26:39;1.53;;;1.43;;
16998;SDS011;10211;49.476;11.010;2022-10-16T03:29:06;3.80;;;1.63;;
16998;SDS011;10211;49.476;11.010;2022-10-16T03:31:34;2.93;;;1.73;;
16998;SDS011;10211;49.476;11.010;2022-10-16T03:34:01;1.90;;;1.60;;
16998;SDS011;10211;49.476;11.010;2022-10-16T03:36:29;1.60;;;1.43;;
16998;SDS011;10211;49.476;11.010;2022-10-16T03:38:56;2.57;;;1.47;;
16998;SDS011;10211;49.476;11.010;2022-10-16T03:41:23;2.50;;;1.60;;
16998;SDS011;10211;49.476;11.010;2022-10-16T03:43:49;6.83;;;1.93;;
16998;SDS011;10211;49.476;11.010;2022-10-16T03:46:16;1.83;;;1.60;;
16998;SDS011;10211;49.476;11.010;2022-10-16T03:48:43;4.93;;;1.70;;
16998;SDS011;10211;49.476;11.010;2022-10-16T03:51:10;1.70;;;1.60;;
16998;SDS011;10211;49.476;11.010;2022-10-16T03:53:38;4.17;;;2.00;;
16998;SDS011;10211;49.476;11.010;2022-10-16T03:56:05;1.77;;;1.67;;
16998;SDS011;10211;49.476;11.010;2022-10-16T03:58:32;2.63;;;1.50;;
16998;SDS011;10211;49.476;11.010;2022-10-16T04:00:59;1.40;;;1.30;;
16998;SDS011;10211;49.476;11.010;2022-10-16T04:03:25;1.77;;;1.67;;
16998;SDS011;10211;49.476;11.010;2022-10-16T04:05:52;2.53;;;1.50;;
16998;SDS011;10211;49.476;11.010;2022-10-16T04:08:19;1.47;;;1.37;;
16998;SDS011;10211;49.476;11.010;2022-10-16T04:10:47;3.10;;;1.60;;
16998;SDS011;10211;49.476;11.010;2022-10-16T04:13:15;4.10;;;1.77;;
16998;SDS011;10211;49.476;11.010;2022-10-16T04:15:42;2.30;;;2.10;;
16998;SDS011;10211;49.476;11.010;2022-10-16T04:18:11;1.80;;;1.70;;
16998;SDS011;10211;49.476;11.010;2022-10-16T04:20:38;3.53;;;1.93;;
16998;SDS011;10211;49.476;11.010;2022-10-16T04:23:04;3.37;;;2.30;;
16998;SDS011;10211;49.476;11.010;2022-10-16T04:25:31;1.70;;;1.60;;
16998;SDS011;10211;49.476;11.010;2022-10-16T04:28:00;2.03;;;1.50;;
16998;SDS011;10211;49.476;11.010;2022-10-16T04:30:26;1.93;;;1.40;;
16998;SDS011;10211;49.476;11.010;2022-10-16T04:32:54;2.70;;;1.70;;
16998;SDS011;10211;49.476;11.010;2022-10-16T04:35:21;3.57;;;1.30;;
16998;SDS011;10211;49.476;11.010;2022-10-16T04:37:48;3.90;;;1.70;;
16998;SDS011;10211;49.476;11.010;2022-10-16T04:40:15;4.17;;;1.90;;
16998;SDS011;10211;49.476;11.010;2022-10-16T04:42:42;5.13;;;1.80;;
16998;SDS011;10211;49.476;11.010;2022-10-16T04:45:10;1.43;;;1.33;;
16998;SDS011;10211;49.476;11.010;2022-10-16T04:47:37;2.40;;;1.57;;
16998;SDS011;10211;49.476;11.010;2022-10-16T04:50:04;1.60;;;1.50;;
16998;SDS011;10211;49.476;11.010;2022-10-16T04:52:32;2.00;;;1.60;;
16998;SDS011;10211;49.476;11.010;2022-10-16T04:54:59;3.37;;;1.43;;
16998;SDS011;10211;49.476;11.010;2022-10-16T04:57:27;1.93;;;1.60;;
16998;SDS011;10211;49.476;11.010;2022-10-16T04:59:55;2.20;;;1.57;;
16998;SDS011;10211;49.476;11.010;2022-10-16T05:02:24;2.67;;;1.33;;
16998;SDS011;10211;49.476;11.010;2022-10-16T05:04:50;1.90;;;1.50;;
16998;SDS011;10211;49.476;11.010;2022-10-16T05:07:17;4.07;;;1.80;;
16998;SDS011;10211;49.476;11.010;2022-10-16T05:09:44;2.93;;;1.97;;
16998;SDS011;10211;49.476;11.010;2022-10-16T05:12:11;2.40;;;1.60;;
16998;SDS011;10211;49.476;11.010;2022-10-16T05:14:39;3.03;;;1.40;;
16998;SDS011;10211;49.476;11.010;2022-10-16T05:17:06;4.27;;;1.37;;
16998;SDS011;10211;49.476;11.010;2022-10-16T05:19:34;1.77;;;1.67;;
16998;SDS011;10211;49.476;11.010;2022-10-16T05:22:01;6.60;;;1.73;;
16998;SDS011;10211;49.476;11.010;2022-10-16T05:24:28;2.67;;;1.67;;
16998;SDS011;10211;49.476;11.010;2022-10-16T05:26:55;5.57;;;1.87;;
16998;SDS011;10211;49.476;11.010;2022-10-16T05:29:22;1.60;;;1.50;;
16998;SDS011;10211;49.476;11.010;2022-10-16T05:31:51;2.90;;;1.80;;
16998;SDS011;10211;49.476;11.010;2022-10-16T05:34:18;5.70;;;2.00;;
16998;SDS011;10211;49.476;11.010;2022-10-16T05:36:46;2.97;;;1.60;;
16998;SDS011;10211;49.476;11.010;2022-10-16T05:39:13;1.90;;;1.50;;
16998;SDS011;10211;49.476;11.010;2022-10-16T05:41:41;2.00;;;1.80;;
16998;SDS011;10211;49.476;11.010;2022-10-16T05:44:08;3.77;;;1.63;;
16998;SDS011;10211;49.476;11.010;2022-10-16T05:46:37;1.40;;;1.30;;
16998;SDS011;10211;49.476;11.010;2022-10-16T05:49:03;2.10;;;1.87;;
16998;SDS011;10211;49.476;11.010;2022-10-16T05:51:30;2.87;;;1.67;;
16998;SDS011;10211;49.476;11.010;2022-10-16T05:53:58;4.83;;;1.80;;
16998;SDS011;10211;49.476;11.010;2022-10-16T05:56:25;2.83;;;1.60;;
16998;SDS011;10211;49.476;11.010;2022-10-16T05:58:53;4.17;;;1.70;;
16998;SDS011;10211;49.476;11.010;2022-10-16T06:01:21;2.23;;;1.63;;
16998;SDS011;10211;49.476;11.010;2022-10-16T06:03:49;2.77;;;1.87;;
16998;SDS011;10211;49.476;11.010;2022-10-16T06:06:16;2.03;;;1.83;;
16998;SDS011;10211;49.476;11.010;2022-10-16T06:08:46;2.27;;;1.70;;
16998;SDS011;10211;49.476;11.010;2022-10-16T06:11:37;1.93;;;1.70;;
16998;SDS011;10211;49.476;11.010;2022-10-16T06:14:03;2.60;;;1.90;;
16998;SDS011;10211;49.476;11.010;2022-10-16T06:16:33;4.83;;;2.00;;
16998;SDS011;10211;49.476;11.010;2022-10-16T06:19:02;3.33;;;1.90;;
16998;SDS011;10211;49.476;11.010;2022-10-16T06:21:31;2.60;;;1.73;;
16998;SDS011;10211;49.476;11.010;2022-10-16T06:23:58;4.40;;;2.20;;
16998;SDS011;10211;49.476;11.010;2022-10-16T06:26:26;3.47;;;2.03;;
16998;SDS011;10211;49.476;11.010;2022-10-16T06:28:56;2.77;;;1.90;;
16998;SDS011;10211;49.476;11.010;2022-10-16T06:31:24;3.43;;;1.77;;
16998;SDS011;10211;49.476;11.010;2022-10-16T06:33:52;2.07;;;1.87;;
16998;SDS011;10211;49.476;11.010;2022-10-16T06:36:20;2.43;;;1.90;;
16998;SDS011;10211;49.476;11.010;2022-10-16T06:38:47;1.83;;;1.73;;
16998;SDS011;10211;49.476;11.010;2022-10-16T06:41:15;1.87;;;1.77;;
16998;SDS011;10211;49.476;11.010;2022-10-16T06:43:44;2.73;;;2.10;;
16998;SDS011;10211;49.476;11.010;2022-10-16T06:46:13;3.40;;;1.77;;
16998;SDS011;10211;49.476;11.010;2022-10-16T06:48:42;1.93;;;1.77;;
16998;SDS011;10211;49.476;11.010;2022-10-16T06:51:09;5.60;;;2.87;;
16998;SDS011;10211;49.476;11.010;2022-10-16T06:53:38;5.00;;;2.73;;
16998;SDS011;10211;49.476;11.010;2022-10-16T06:56:06;2.27;;;2.07;;
16998;SDS011;10211;49.476;11.010;2022-10-16T06:58:34;6.13;;;3.50;;
16998;SDS011;10211;49.476;11.010;2022-10-16T07:01:01;3.17;;;2.30;;
16998;SDS011;10211;49.476;11.010;2022-10-16T07:03:29;1.83;;;1.70;;
16998;SDS011;10211;49.476;11.010;2022-10-16T07:05:56;2.03;;;1.83;;
16998;SDS011;10211;49.476;11.010;2022-10-16T07:08:27;2.50;;;1.60;;
16998;SDS011;10211;49.476;11.010;2022-10-16T07:10:57;1.70;;;1.60;;
16998;SDS011;10211;49.476;11.010;2022-10-16T07:13:25;3.07;;;1.70;;
16998;SDS011;10211;49.476;11.010;2022-10-16T07:15:52;2.13;;;1.70;;
16998;SDS011;10211;49.476;11.010;2022-10-16T07:18:21;1.80;;;1.70;;
16998;SDS011;10211;49.476;11.010;2022-10-16T07:20:52;4.20;;;1.63;;
16998;SDS011;10211;49.476;11.010;2022-10-16T07:23:19;5.57;;;1.90;;
16998;SDS011;10211;49.476;11.010;2022-10-16T07:25:52;2.33;;;1.60;;
16998;SDS011;10211;49.476;11.010;2022-10-16T07:28:20;4.10;;;2.00;;
16998;SDS011;10211;49.476;11.010;2022-10-16T07:30:47;1.53;;;1.40;;
16998;SDS011;10211;49.476;11.010;2022-10-16T07:33:14;5.67;;;1.83;;
16998;SDS011;10211;49.476;11.010;2022-10-16T07:35:47;4.20;;;1.83;;
16998;SDS011;10211;49.476;11.010;2022-10-16T07:38:16;4.60;;;1.80;;
16998;SDS011;10211;49.476;11.010;2022-10-16T07:40:43;5.53;;;1.70;;
16998;SDS011;10211;49.476;11.010;2022-10-16T07:43:10;1.80;;;1.70;;
16998;SDS011;10211;49.476;11.010;2022-10-16T07:45:37;2.63;;;1.67;;
16998;SDS011;10211;49.476;11.010;2022-10-16T07:48:14;2.67;;;1.90;;
16998;SDS011;10211;49.476;11.010;2022-10-16T07:50:41;3.17;;;1.80;;
16998;SDS011;10211;49.476;11.010;2022-10-16T07:53:08;6.83;;;1.80;;
16998;SDS011;10211;49.476;11.010;2022-10-16T07:55:39;3.83;;;1.50;;
16998;SDS011;10211;49.476;11.010;2022-10-16T07:58:06;1.70;;;1.60;;
16998;SDS011;10211;49.476;11.010;2022-10-16T08:00:33;2.37;;;1.13;;
16998;SDS011;10211;49.476;11.010;2022-10-16T08:03:01;7.20;;;1.70;;
16998;SDS011;10211;49.476;11.010;2022-10-16T08:08:51;1.63;;;1.53;;
16998;SDS011;10211;49.476;11.010;2022-10-16T08:11:19;4.53;;;1.63;;
16998;SDS011;10211;49.476;11.010;2022-10-16T08:13:46;2.53;;;1.23;;
16998;SDS011;10211;49.476;11.010;2022-10-16T08:16:15;1.83;;;1.30;;
16998;SDS011;10211;49.476;11.010;2022-10-16T08:18:45;1.37;;;1.27;;
16998;SDS011;10211;49.476;11.010;2022-10-16T08:21:16;1.83;;;1.40;;
16998;SDS011;10211;49.476;11.010;2022-10-16T08:23:45;1.43;;;1.20;;
16998;SDS011;10211;49.476;11.010;2022-10-16T08:26:12;2.73;;;1.70;;
16998;SDS011;10211;49.476;11.010;2022-10-16T08:28:42;1.73;;;1.63;;
16998;SDS011;10211;49.476;11.010;2022-10-16T08:31:15;2.47;;;1.67;;
16998;SDS011;10211;49.476;11.010;2022-10-16T08:33:42;1.60;;;1.50;;
16998;SDS011;10211;49.476;11.010;2022-10-16T08:36:12;7.37;;;1.57;;
16998;SDS011;10211;49.476;11.010;2022-10-16T08:38:39;4.93;;;1.80;;
16998;SDS011;10211;49.476;11.010;2022-10-16T08:41:15;2.47;;;1.40;;
16998;SDS011;10211;49.476;11.010;2022-10-16T08:44:07;2.33;;;1.17;;
16998;SDS011;10211;49.476;11.010;2022-10-16T08:46:48;1.27;;;1.17;;
16998;SDS011;10211;49.476;11.010;2022-10-16T08:49:25;1.17;;;1.10;;
16998;SDS011;10211;49.476;11.010;2022-10-16T08:51:53;1.67;;;1.43;;
16998;SDS011;10211;49.476;11.010;2022-10-16T08:54:24;1.60;;;1.50;;
16998;SDS011;10211;49.476;11.010;2022-10-16T08:56:55;1.23;;;1.13;;
16998;SDS011;10211;49.476;11.010;2022-10-16T08:59:24;1.73;;;1.40;;
16998;SDS011;10211;49.476;11.010;2022-10-16T09:01:51;1.40;;;1.17;;
16998;SDS011;10211;49.476;11.010;2022-10-16T09:07:13;1.67;;;1.40;;
16998;SDS011;10211;49.476;11.010;2022-10-16T09:09:52;1.77;;;1.30;;
16998;SDS011;10211;49.476;11.010;2022-10-16T09:12:28;3.73;;;1.23;;
16998;SDS011;10211;49.476;11.010;2022-10-16T09:15:03;1.13;;;1.03;;
16998;SDS011;10211;49.476;11.010;2022-10-16T09:17:41;2.57;;;1.30;;
16998;SDS011;10211;49.476;11.010;2022-10-16T09:20:18;3.97;;;1.20;;
16998;SDS011;10211;49.476;11.010;2022-10-16T09:22:53;2.37;;;1.03;;
16998;SDS011;10211;49.476;11.010;2022-10-16T09:25:26;2.50;;;1.40;;
16998;SDS011;10211;49.476;11.010;2022-10-16T09:27:54;2.43;;;1.40;;
16998;SDS011;10211;49.476;11.010;2022-10-16T09:30:23;1.47;;;1.10;;
16998;SDS011;10211;49.476;11.010;2022-10-16T09:32:54;1.07;;;1.00;;
16998;SDS011;10211;49.476;11.010;2022-10-16T09:35:24;1.50;;;1.40;;
16998;SDS011;10211;49.476;11.010;2022-10-16T09:37:57;3.23;;;1.40;;
16998;SDS011;10211;49.476;11.010;2022-10-16T09:40:25;1.30;;;1.20;;
16998;SDS011;10211;49.476;11.010;2022-10-16T09:42:56;3.50;;;1.47;;
16998;SDS011;10211;49.476;11.010;2022-10-16T09:45:30;1.63;;;1.30;;
16998;SDS011;10211;49.476;11.010;2022-10-16T09:47:56;2.00;;;1.23;;
16998;SDS011;10211;49.476;11.010;2022-10-16T09:50:24;3.47;;;1.73;;
16998;SDS011;10211;49.476;11.010;2022-10-16T09:53:02;6.97;;;1.50;;
16998;SDS011;10211;49.476;11.010;2022-10-16T09:55:32;4.63;;;1.33;;
16998;SDS011;10211;49.476;11.010;2022-10-16T09:58:00;3.50;;;1.60;;
16998;SDS011;10211;49.476;11.010;2022-10-16T10:00:27;2.83;;;1.50;;
16998;SDS011;10211;49.476;11.010;2022-10-16T10:02:58;1.73;;;1.37;;
16998;SDS011;10211;49.476;11.010;2022-10-16T10:05:25;1.30;;;1.20;;
16998;SDS011;10211;49.476;11.010;2022-10-16T10:07:54;3.73;;;1.30;;
16998;SDS011;10211;49.476;11.010;2022-10-16T10:10:23;2.67;;;1.70;;
16998;SDS011;10211;49.476;11.010;2022-10-16T10:12:52;5.63;;;1.43;;
16998;SDS011;10211;49.476;11.010;2022-10-16T10:15:20;2.93;;;1.30;;
16998;SDS011;10211;49.476;11.010;2022-10-16T10:17:50;3.53;;;1.43;;
16998;SDS011;10211;49.476;11.010;2022-10-16T10:20:23;2.40;;;1.70;;
16998;SDS011;10211;49.476;11.010;2022-10-16T10:22:52;1.30;;;1.10;;
16998;SDS011;10211;49.476;11.010;2022-10-16T10:28:21;1.47;;;1.37;;
16998;SDS011;10211;49.476;11.010;2022-10-16T10:31:01;1.23;;;1.13;;
16998;SDS011;10211;49.476;11.010;2022-10-16T10:33:35;1.93;;;1.20;;
16998;SDS011;10211;49.476;11.010;2022-10-16T10:36:12;1.43;;;1.20;;
16998;SDS011;10211;49.476;11.010;2022-10-16T10:38:49;3.97;;;1.30;;
16998;SDS011;10211;49.476;11.010;2022-10-16T10:44:30;1.33;;;1.23;;
16998;SDS011;10211;49.476;11.010;2022-10-16T10:47:21;1.10;;;1.10;;
16998;SDS011;10211;49.476;11.010;2022-10-16T10:49:55;2.47;;;1.10;;
16998;SDS011;10211;49.476;11.010;2022-10-16T10:52:37;1.27;;;1.17;;
16998;SDS011;10211;49.476;11.010;2022-10-16T10:55:15;2.37;;;1.30;;
16998;SDS011;10211;49.476;11.010;2022-10-16T10:57:55;1.20;;;1.10;;
16998;SDS011;10211;49.476;11.010;2022-10-16T11:00:34;1.60;;;1.33;;
16998;SDS011;10211;49.476;11.010;2022-10-16T11:03:13;1.75;;;1.10;;
16998;SDS011;10211;49.476;11.010;2022-10-16T11:05:54;1.23;;;1.13;;
16998;SDS011;10211;49.476;11.010;2022-10-16T11:08:27;4.70;;;1.02;;
16998;SDS011;10211;49.476;11.010;2022-10-16T11:10:59;0.97;;;0.97;;
16998;SDS011;10211;49.476;11.010;2022-10-16T11:13:30;1.10;;;1.00;;
16998;SDS011;10211;49.476;11.010;2022-10-16T11:16:05;1.80;;;1.00;;
16998;SDS011;10211;49.476;11.010;2022-10-16T11:18:41;1.05;;;0.95;;
16998;SDS011;10211;49.476;11.010;2022-10-16T11:21:13;1.25;;;1.15;;
16998;SDS011;10211;49.476;11.010;2022-10-16T11:23:44;1.58;;;1.15;;
16998;SDS011;10211;49.476;11.010;2022-10-16T11:26:18;2.65;;;1.10;;
16998;SDS011;10211;49.476;11.010;2022-10-16T11:28:48;2.80;;;1.15;;
16998;SDS011;10211;49.476;11.010;2022-10-16T11:31:17;1.08;;;1.05;;
16998;SDS011;10211;49.476;11.010;2022-10-16T11:33:54;1.10;;;1.00;;
16998;SDS011;10211;49.476;11.010;2022-10-16T11:36:30;1.33;;;1.15;;
16998;SDS011;10211;49.476;11.010;2022-10-16T11:39:07;1.50;;;1.40;;
16998;SDS011;10211;49.476;11.010;2022-10-16T11:41:42;1.73;;;1.10;;
16998;SDS011;10211;49.476;11.010;2022-10-16T11:44:16;4.70;;;1.58;;
16998;SDS011;10211;49.476;11.010;2022-10-16T11:46:57;1.77;;;1.35;;
16998;SDS011;10211;49.476;11.010;2022-10-16T11:49:33;1.60;;;1.50;;
16998;SDS011;10211;49.476;11.010;2022-10-16T11:52:03;1.48;;;1.20;;
16998;SDS011;10211;49.476;11.010;2022-10-16T11:54:42;4.68;;;1.08;;
16998;SDS011;10211;49.476;11.010;2022-10-16T11:57:16;1.13;;;1.02;;
16998;SDS011;10211;49.476;11.010;2022-10-16T11:59:47;1.10;;;1.00;;
16998;SDS011;10211;49.476;11.010;2022-10-16T12:02:28;1.67;;;1.00;;
16998;SDS011;10211;49.476;11.010;2022-10-16T12:05:12;1.55;;;1.45;;
16998;SDS011;10211;49.476;11.010;2022-10-16T12:07:47;2.15;;;1.35;;
16998;SDS011;10211;49.476;11.010;2022-10-16T12:10:22;3.25;;;1.30;;
16998;SDS011;10211;49.476;11.010;2022-10-16T12:12:52;1.90;;;1.15;;
16998;SDS011;10211;49.476;11.010;2022-10-16T12:15:20;2.00;;;1.10;;
16998;SDS011;10211;49.476;11.010;2022-10-16T12:17:48;3.92;;;1.20;;
16998;SDS011;10211;49.476;11.010;2022-10-16T12:20:23;1.40;;;1.00;;
16998;SDS011;10211;49.476;11.010;2022-10-16T12:22:56;3.38;;;0.95;;
16998;SDS011;10211;49.476;11.010;2022-10-16T12:25:26;1.00;;;1.00;;
16998;SDS011;10211;49.476;11.010;2022-10-16T12:27:59;1.60;;;1.38;;
16998;SDS011;10211;49.476;11.010;2022-10-16T12:30:28;1.58;;;0.98;;
16998;SDS011;10211;49.476;11.010;2022-10-16T12:32:57;1.23;;;0.90;;
16998;SDS011;10211;49.476;11.010;2022-10-16T12:35:26;3.45;;;1.00;;
16998;SDS011;10211;49.476;11.010;2022-10-16T12:38:03;1.23;;;0.93;;
16998;SDS011;10211;49.476;11.010;2022-10-16T12:40:33;1.13;;;1.13;;
16998;SDS011;10211;49.476;11.010;2022-10-16T12:43:10;0.98;;;0.98;;
16998;SDS011;10211;49.476;11.010;2022-10-16T12:45:58;0.88;;;0.77;;
16998;SDS011;10211;49.476;11.010;2022-10-16T12:48:26;2.15;;;1.20;;
16998;SDS011;10211;49.476;11.010;2022-10-16T12:50:53;1.38;;;0.85;;
16998;SDS011;10211;49.476;11.010;2022-10-16T12:53:21;1.65;;;1.10;;
16998;SDS011;10211;49.476;11.010;2022-10-16T12:55:54;1.13;;;0.85;;
16998;SDS011;10211;49.476;11.010;2022-10-16T12:58:34;2.05;;;0.90;;
16998;SDS011;10211;49.476;11.010;2022-10-16T13:01:13;0.90;;;0.90;;
16998;SDS011;10211;49.476;11.010;2022-10-16T13:06:45;3.22;;;1.27;;
16998;SDS011;10211;49.476;11.010;2022-10-16T13:09:40;3.60;;;1.02;;
16998;SDS011;10211;49.476;11.010;2022-10-16T13:12:25;2.42;;;1.00;;
16998;SDS011;10211;49.476;11.010;2022-10-16T13:15:17;2.28;;;0.93;;
16998;SDS011;10211;49.476;11.010;2022-10-16T13:17:53;1.48;;;0.85;;
16998;SDS011;10211;49.476;11.010;2022-10-16T13:20:30;0.93;;;0.70;;
16998;SDS011;10211;49.476;11.010;2022-10-16T13:23:02;2.13;;;1.10;;
16998;SDS011;10211;49.476;11.010;2022-10-16T13:25:40;0.70;;;0.70;;
16998;SDS011;10211;49.476;11.010;2022-10-16T13:28:21;2.35;;;0.98;;
16998;SDS011;10211;49.476;11.010;2022-10-16T13:30:53;1.17;;;0.98;;
16998;SDS011;10211;49.476;11.010;2022-10-16T13:33:25;0.80;;;0.77;;
16998;SDS011;10211;49.476;11.010;2022-10-16T13:35:58;0.90;;;0.90;;
16998;SDS011;10211;49.476;11.010;2022-10-16T13:38:25;1.20;;;0.82;;
16998;SDS011;10211;49.476;11.010;2022-10-16T13:40:54;0.80;;;0.80;;
16998;SDS011;10211;49.476;11.010;2022-10-16T13:43:24;4.25;;;1.08;;
16998;SDS011;10211;49.476;11.010;2022-10-16T13:45:57;1.55;;;1.13;;
16998;SDS011;10211;49.476;11.010;2022-10-16T13:48:26;0.93;;;0.93;;
16998;SDS011;10211;49.476;11.010;2022-10-16T13:51:00;3.45;;;1.17;;
16998;SDS011;10211;49.476;11.010;2022-10-16T13:53:31;7.32;;;1.30;;
16998;SDS011;10211;49.476;11.010;2022-10-16T13:55:59;3.17;;;0.98;;
16998;SDS011;10211;49.476;11.010;2022-10-16T13:58:27;1.60;;;0.90;;
16998;SDS011;10211;49.476;11.010;2022-10-16T14:00:55;1.17;;;0.95;;
16998;SDS011;10211;49.476;11.010;2022-10-16T14:03:24;1.38;;;0.80;;
16998;SDS011;10211;49.476;11.010;2022-10-16T14:05:52;0.80;;;0.80;;
16998;SDS011;10211;49.476;11.010;2022-10-16T14:08:21;2.25;;;1.00;;
16998;SDS011;10211;49.476;11.010;2022-10-16T14:10:50;1.30;;;1.25;;
16998;SDS011;10211;49.476;11.010;2022-10-16T14:13:20;2.65;;;0.90;;
16998;SDS011;10211;49.476;11.010;2022-10-16T14:15:56;1.20;;;1.10;;
16998;SDS011;10211;49.476;11.010;2022-10-16T14:18:26;1.00;;;1.00;;
16998;SDS011;10211;49.476;11.010;2022-10-16T14:20:54;1.15;;;0.90;;
16998;SDS011;10211;49.476;11.010;2022-10-16T14:23:29;1.10;;;0.90;;
16998;SDS011;10211;49.476;11.010;2022-10-16T14:26:05;1.50;;;1.02;;
16998;SDS011;10211;49.476;11.010;2022-10-16T14:28:39;2.33;;;1.00;;
16998;SDS011;10211;49.476;11.010;2022-10-16T14:33:57;0.80;;;0.80;;
16998;SDS011;10211;49.476;11.010;2022-10-16T14:36:24;0.70;;;0.70;;
16998;SDS011;10211;49.476;11.010;2022-10-16T14:38:59;3.00;;;1.08;;
16998;SDS011;10211;49.476;11.010;2022-10-16T14:41:28;2.60;;;0.70;;
16998;SDS011;10211;49.476;11.010;2022-10-16T14:43:56;2.35;;;0.90;;
16998;SDS011;10211;49.476;11.010;2022-10-16T14:46:32;0.70;;;0.70;;
16998;SDS011;10211;49.476;11.010;2022-10-16T14:49:15;1.17;;;0.77;;
16998;SDS011;10211;49.476;11.010;2022-10-16T14:51:44;0.70;;;0.70;;
16998;SDS011;10211;49.476;11.010;2022-10-16T14:54:12;2.47;;;0.90;;
16998;SDS011;10211;49.476;11.010;2022-10-16T14:56:46;1.50;;;0.97;;
16998;SDS011;10211;49.476;11.010;2022-10-16T14:59:15;0.80;;;0.80;;
16998;SDS011;10211;49.476;11.010;2022-10-16T15:01:47;1.10;;;0.90;;
16998;SDS011;10211;49.476;11.010;2022-10-16T15:04:14;1.40;;;0.83;;
16998;SDS011;10211;49.476;11.010;2022-10-16T15:06:42;1.83;;;0.83;;
16998;SDS011;10211;49.476;11.010;2022-10-16T15:09:09;0.95;;;0.95;;
16998;SDS011;10211;49.476;11.010;2022-10-16T15:11:36;4.28;;;1.27;;
16998;SDS011;10211;49.476;11.010;2022-10-16T15:14:05;2.37;;;1.50;;